Terminal Aerodrome Forecast
Issued by NWS

Home | Current Version | Previous Version | Text Only | Print | Product List | Glossary On
Versions: 1 2 3 4 5 6 7 8 9 10 11 12 13 14 15 16 17 18 19 20 21
000
FTUS43 KDLH 161500 AAA
TAFBRD
TAF AMD
KBRD 161542Z 1616/1712 21010KT P6SM VCSH SCT070 OVC100
     FM162000 26008KT P6SM VCSH BKN060
     FM162300 29005KT P6SM BKN080
     FM170400 32006KT P6SM SCT080=

USA.gov is the U.S. government's official web portal to all federal, state and local government web resources and services.